Aeroporto :
LOGIN :

Iscrizione | Disclaimer

   EN    FR    IT 

 










Sommario :    VFR   VFR Marginale   IFR   IFR Intensivo   IFR Molto Intensivo
Visibilità : 
Base nubi : 
>= 8 km
>= 3000ft
5 / 8 km
1000 / 3000 ft
1500m / 5 km
500 / 1000 ft
800 / 1500m
200 / 500 ft
< 800m
< 200 ft
Simboli :   Temporali  Nebbia  Neve Forte  Precipitazioni Forti  Vento > 20 kt
SIGMETs :   Varie  Temporali  Ghiacco  Turbolenza  Onda orograficha  Ceneri Vulcaniche







- Altitudine del aeroporto : 38 ft
- Codice IATA : TRE
- Carte del aeroporto


EGPU - Tiree

ULTIMO METAR :
  • 210520Z AUTO 14007KT 9999 BKN021/// 13/12 Q1016

METARs OBSOLETI :
  • 210450Z AUTO 14006KT 9999 BKN027/// BKN048/// 13/12 Q1016
  • 210420Z AUTO 14006KT 9999 SCT035/// BKN048/// 13/12 Q1016
  • 210350Z AUTO 14005KT 9999 FEW048/// 12/12 Q1017
  • 210320Z AUTO 10004KT 9999 FEW049/// 11/11 Q1017
  • 210250Z AUTO 07003KT 9999 NCD 11/10 Q1017

TAF TAF EGPU
Valido dal 21 a 06 ore il 21 a 15 ore UTC


210505Z 2106/2115 14005KT 9999 FEW045
PROB40
TEMPO 2107/2113 8000 -RA BKN008
Nessun NOTAM noto per questo aeroporto.



MetMap, La meteo Aeronautica in un colpo d'occhio ! - Copyright ORBIFLY Dicembre 2007 - Disclaimer

ORBIFLY MET'MAP TEAM :

Programmazione e sviluppo : Alexandra Zaïnal
Concezione e sviluppo : Baudouin d'Aumeries
Co-Programmazione e sviluppo : Marc-Olivier Méhu
Supporto tecnico e logistico : Manuel Goepfert
Aiuto per la traduzione : Arnaldo La Scala

Contatto : metmap@orbifly.com




FONTI E CREDITI :

   NOAA